createdAt,value
2018-07-31T00:01:55.769Z,6.80
2018-07-31T00:04:23.781Z,7.00
2018-07-31T00:06:51.776Z,6.40
2018-07-31T00:09:19.779Z,7.00
2018-07-31T00:11:47.828Z,7.23
2018-07-31T00:14:15.817Z,7.43
2018-07-31T00:16:43.807Z,6.70
2018-07-31T00:19:11.802Z,7.30
2018-07-31T00:21:39.812Z,6.87
2018-07-31T00:24:07.848Z,7.03
2018-07-31T00:26:35.863Z,7.00
2018-07-31T00:29:03.887Z,7.30
2018-07-31T00:31:31.856Z,8.03
2018-07-31T00:33:59.876Z,7.13
2018-07-31T00:36:27.872Z,8.17
2018-07-31T00:38:55.920Z,8.03
2018-07-31T00:41:23.912Z,7.27
2018-07-31T00:43:51.929Z,7.20
2018-07-31T00:46:19.920Z,7.17
2018-07-31T00:48:47.900Z,7.40
2018-07-31T00:51:15.944Z,7.90
2018-07-31T00:53:43.947Z,7.87
2018-07-31T00:56:11.942Z,8.10
2018-07-31T00:58:39.940Z,7.13
2018-07-31T01:01:07.936Z,6.90
2018-07-31T01:03:35.934Z,8.20
2018-07-31T01:06:03.920Z,7.50
2018-07-31T01:08:31.931Z,7.30
2018-07-31T01:10:59.985Z,7.20
2018-07-31T01:13:27.962Z,7.00
2018-07-31T01:15:55.953Z,7.07
2018-07-31T01:18:23.972Z,7.57
2018-07-31T01:20:52.536Z,7.03
2018-07-31T01:23:20.708Z,6.93
2018-07-31T01:25:50.796Z,7.93
2018-07-31T01:28:18.793Z,8.40
2018-07-31T01:30:46.771Z,8.37
2018-07-31T01:33:14.776Z,7.47
2018-07-31T01:35:42.776Z,6.97
2018-07-31T01:38:10.772Z,7.30
2018-07-31T01:40:38.785Z,7.43
2018-07-31T01:43:06.932Z,7.43
2018-07-31T01:45:35.038Z,8.10
2018-07-31T01:48:03.049Z,6.90
2018-07-31T01:50:31.085Z,7.23
2018-07-31T01:52:59.232Z,7.43
2018-07-31T01:55:27.272Z,8.10
2018-07-31T01:57:55.272Z,8.47
2018-07-31T02:00:23.492Z,7.30
2018-07-31T02:02:51.485Z,6.80
2018-07-31T02:05:19.481Z,6.93
2018-07-31T02:07:47.482Z,7.70
2018-07-31T02:10:15.500Z,7.63
2018-07-31T02:12:43.565Z,7.40
2018-07-31T02:15:11.564Z,7.43
2018-07-31T02:17:39.572Z,7.43
2018-07-31T02:20:07.608Z,7.67
2018-07-31T02:22:35.644Z,6.73
2018-07-31T02:25:03.666Z,7.23
2018-07-31T02:27:31.664Z,7.03
2018-07-31T02:30:05.116Z,7.00
2018-07-31T02:32:33.106Z,7.30
2018-07-31T02:35:01.106Z,7.77
2018-07-31T02:37:29.212Z,7.93
2018-07-31T02:39:57.240Z,7.17
2018-07-31T02:42:26.520Z,7.70
2018-07-31T02:44:54.556Z,8.00
2018-07-31T02:47:22.557Z,7.33
2018-07-31T02:49:50.561Z,8.00
2018-07-31T02:52:18.611Z,7.60
2018-07-31T02:54:46.592Z,6.80
2018-07-31T02:57:14.597Z,6.87
2018-07-31T02:59:42.608Z,7.60
2018-07-31T03:02:10.662Z,7.70
2018-07-31T03:04:38.652Z,7.50
2018-07-31T03:07:06.833Z,7.50
2018-07-31T03:09:34.848Z,7.43
2018-07-31T03:12:02.872Z,8.93
2018-07-31T03:14:30.876Z,7.17
2018-07-31T03:16:58.900Z,8.03
2018-07-31T03:19:26.925Z,8.00
2018-07-31T03:21:54.960Z,7.03
2018-07-31T03:24:22.962Z,8.80
2018-07-31T03:26:50.984Z,7.73
2018-07-31T03:29:18.985Z,7.93
2018-07-31T03:31:46.984Z,8.00
2018-07-31T03:34:14.985Z,7.63
2018-07-31T03:36:43.119Z,7.73
2018-07-31T03:39:11.349Z,7.37
2018-07-31T03:41:39.433Z,7.53
2018-07-31T03:44:07.596Z,7.23
2018-07-31T03:46:35.615Z,7.70
2018-07-31T03:49:03.610Z,8.10
2018-07-31T03:51:31.620Z,7.67
2018-07-31T03:53:59.705Z,8.13
2018-07-31T03:56:27.800Z,7.97
2018-07-31T03:58:55.818Z,7.43
2018-07-31T04:01:23.951Z,7.73
2018-07-31T04:03:51.934Z,8.03
2018-07-31T04:06:20.156Z,8.20
2018-07-31T04:08:48.165Z,7.20
2018-07-31T04:11:16.160Z,8.57
2018-07-31T04:13:44.153Z,7.83
2018-07-31T04:16:12.162Z,8.43
2018-07-31T04:18:40.181Z,8.27
2018-07-31T04:21:08.193Z,8.10
2018-07-31T04:23:36.194Z,8.03
2018-07-31T04:26:04.197Z,7.73
2018-07-31T04:28:32.197Z,7.90
2018-07-31T04:31:00.209Z,8.23
2018-07-31T04:33:28.242Z,8.43
2018-07-31T04:35:56.368Z,7.70
2018-07-31T04:38:24.325Z,8.50
2018-07-31T04:40:52.325Z,7.57
2018-07-31T04:43:20.324Z,8.03
2018-07-31T04:45:48.328Z,8.40
2018-07-31T04:48:16.397Z,8.50
2018-07-31T04:50:44.409Z,8.13
2018-07-31T04:53:12.444Z,8.43
2018-07-31T04:55:40.464Z,7.87
2018-07-31T04:58:08.510Z,7.83
2018-07-31T05:00:36.480Z,8.30
2018-07-31T05:03:04.529Z,7.90
2018-07-31T05:05:32.543Z,7.90
2018-07-31T05:08:00.569Z,7.73
2018-07-31T05:10:28.548Z,8.00
2018-07-31T05:12:56.604Z,8.27
2018-07-31T05:15:24.661Z,8.77
2018-07-31T05:17:52.681Z,8.17
2018-07-31T05:20:20.692Z,8.30
2018-07-31T05:22:48.713Z,7.53
2018-07-31T05:25:16.883Z,8.00
2018-07-31T05:27:44.860Z,7.30
2018-07-31T05:30:12.960Z,7.43
2018-07-31T05:32:41.113Z,7.47
2018-07-31T05:35:09.812Z,6.87
2018-07-31T05:37:38.005Z,6.80
2018-07-31T05:40:06.972Z,6.47
2018-07-31T05:42:34.981Z,7.20
2018-07-31T05:45:02.969Z,7.57
2018-07-31T05:47:30.986Z,7.10
2018-07-31T05:49:58.972Z,6.40
2018-07-31T05:52:27.177Z,6.13
2018-07-31T05:54:55.231Z,6.13
2018-07-31T05:57:23.383Z,6.90
2018-07-31T05:59:51.552Z,5.97
2018-07-31T06:02:19.612Z,6.10
2018-07-31T06:04:47.677Z,5.90
2018-07-31T06:07:15.770Z,5.40
2018-07-31T06:09:43.757Z,5.97
2018-07-31T06:12:12.805Z,5.73
2018-07-31T06:14:40.856Z,5.90
2018-07-31T06:17:08.960Z,5.73
2018-07-31T06:19:38.057Z,5.57
2018-07-31T06:22:06.435Z,5.40
2018-07-31T06:24:34.509Z,6.28
2018-07-31T06:27:02.591Z,5.63
2018-07-31T06:29:30.512Z,5.30
2018-07-31T06:31:58.509Z,5.80
2018-07-31T06:34:26.608Z,6.40
2018-07-31T06:36:54.596Z,6.03
2018-07-31T06:39:22.587Z,4.80
2018-07-31T06:41:50.607Z,5.63
2018-07-31T06:44:18.596Z,5.80
2018-07-31T06:46:46.638Z,5.80
2018-07-31T06:49:14.648Z,5.30
2018-07-31T06:51:42.746Z,5.30
2018-07-31T06:54:10.748Z,5.50
2018-07-31T06:56:38.773Z,5.00
2018-07-31T06:59:06.716Z,4.80
2018-07-31T07:01:34.747Z,4.72
2018-07-31T07:04:02.741Z,4.65
2018-07-31T07:06:30.720Z,4.50
2018-07-31T07:08:58.697Z,4.90
2018-07-31T07:11:26.680Z,4.90
2018-07-31T07:13:54.704Z,5.35
2018-07-31T07:16:22.684Z,4.33
2018-07-31T07:18:50.672Z,4.53
2018-07-31T07:21:18.691Z,4.62
2018-07-31T07:23:46.841Z,4.67
2018-07-31T07:26:14.817Z,4.95
2018-07-31T07:28:42.784Z,5.03
2018-07-31T07:31:10.775Z,4.72
2018-07-31T07:33:38.828Z,5.08
2018-07-31T07:36:06.844Z,5.42
2018-07-31T07:38:34.832Z,5.85
2018-07-31T07:41:02.800Z,5.30
2018-07-31T07:43:30.788Z,5.35
2018-07-31T07:45:58.773Z,5.37
2018-07-31T07:48:26.858Z,5.22
2018-07-31T07:50:54.728Z,5.60
2018-07-31T07:53:22.756Z,5.73
2018-07-31T07:55:50.741Z,5.67
2018-07-31T07:58:18.724Z,5.63
2018-07-31T08:00:47.589Z,5.57
2018-07-31T08:03:15.572Z,5.03
2018-07-31T08:05:43.548Z,5.50
2018-07-31T08:08:11.817Z,5.97
2018-07-31T08:10:42.137Z,6.03
2018-07-31T08:13:10.160Z,5.55
2018-07-31T08:15:38.132Z,5.10
2018-07-31T08:18:06.116Z,5.40
2018-07-31T08:20:34.378Z,5.57
2018-07-31T08:23:02.356Z,4.78
2018-07-31T08:25:30.451Z,5.43
2018-07-31T08:27:58.436Z,5.37
2018-07-31T08:30:26.460Z,4.92
2018-07-31T08:32:54.595Z,5.28
2018-07-31T08:35:22.630Z,5.83
2018-07-31T08:37:50.709Z,5.28
2018-07-31T08:40:18.706Z,4.90
2018-07-31T08:42:46.748Z,5.80
2018-07-31T08:45:14.776Z,5.25
2018-07-31T08:47:42.884Z,5.13
2018-07-31T08:50:10.860Z,5.70
2018-07-31T08:52:38.845Z,5.17
2018-07-31T08:55:06.824Z,5.37
2018-07-31T08:57:34.817Z,5.47
2018-07-31T09:00:02.822Z,5.43
2018-07-31T09:02:30.924Z,5.80
2018-07-31T09:04:58.916Z,4.70
2018-07-31T09:07:26.884Z,5.12
2018-07-31T09:09:54.876Z,5.20
2018-07-31T09:12:22.888Z,5.33
2018-07-31T09:14:50.858Z,4.60
2018-07-31T09:17:18.832Z,4.25
2018-07-31T09:19:46.922Z,5.28
2018-07-31T09:22:14.967Z,4.90
2018-07-31T09:24:42.907Z,5.57
2018-07-31T09:27:11.041Z,4.90
2018-07-31T09:29:39.040Z,5.60
2018-07-31T09:32:07.032Z,6.60
2018-07-31T09:34:40.456Z,5.00
2018-07-31T09:37:08.432Z,5.17
2018-07-31T09:39:36.516Z,5.90
2018-07-31T09:42:04.543Z,5.03
2018-07-31T09:44:32.536Z,4.90
2018-07-31T09:47:00.517Z,5.87
2018-07-31T09:49:28.524Z,5.60
2018-07-31T09:51:56.552Z,5.23
2018-07-31T09:54:24.572Z,6.20
2018-07-31T09:56:52.962Z,5.27
2018-07-31T09:59:20.944Z,6.13
2018-07-31T10:01:48.939Z,5.07
2018-07-31T10:04:16.972Z,5.87
2018-07-31T10:06:44.969Z,5.40
2018-07-31T10:09:13.052Z,5.90
2018-07-31T10:11:41.057Z,5.10
2018-07-31T10:14:09.068Z,5.63
2018-07-31T10:16:37.130Z,6.27
2018-07-31T10:19:05.112Z,5.53
2018-07-31T10:21:33.212Z,6.10
2018-07-31T10:24:01.244Z,6.07
2018-07-31T10:26:29.200Z,5.27
2018-07-31T10:28:57.243Z,5.43
2018-07-31T10:31:25.224Z,5.00
2018-07-31T10:33:53.300Z,6.20
2018-07-31T10:36:21.358Z,5.17
2018-07-31T10:38:49.380Z,6.10
2018-07-31T10:41:17.423Z,5.83
2018-07-31T10:43:45.421Z,4.73
2018-07-31T10:46:13.431Z,5.03
2018-07-31T10:48:41.412Z,4.67
2018-07-31T10:51:09.412Z,4.50
2018-07-31T10:53:37.414Z,4.00
2018-07-31T10:56:05.584Z,4.83
2018-07-31T10:58:33.664Z,4.67
2018-07-31T11:01:01.661Z,3.20
2018-07-31T11:03:29.640Z,4.10
2018-07-31T11:05:57.730Z,4.10
2018-07-31T11:08:25.782Z,4.30
2018-07-31T11:10:53.820Z,4.23
2018-07-31T11:13:21.918Z,4.23
2018-07-31T11:15:49.799Z,4.20
2018-07-31T11:18:17.775Z,4.77
2018-07-31T11:20:45.781Z,3.80
2018-07-31T11:23:13.848Z,4.27
2018-07-31T11:25:41.897Z,4.20
2018-07-31T11:28:09.884Z,3.97
2018-07-31T11:30:37.909Z,3.60
2018-07-31T11:33:05.906Z,3.90
2018-07-31T11:35:33.872Z,4.30
2018-07-31T11:38:01.867Z,4.00
2018-07-31T11:40:29.903Z,4.00
2018-07-31T11:42:57.980Z,3.80
2018-07-31T11:45:26.118Z,3.80
2018-07-31T11:47:54.188Z,3.87
2018-07-31T11:50:22.345Z,3.20
2018-07-31T11:52:50.488Z,4.10
2018-07-31T11:55:18.536Z,3.30
2018-07-31T11:57:47.623Z,3.97
2018-07-31T12:00:15.611Z,3.93
2018-07-31T12:02:43.652Z,3.90
2018-07-31T12:05:11.749Z,3.57
2018-07-31T12:07:39.868Z,4.40
2018-07-31T12:10:07.920Z,4.53
2018-07-31T12:12:36.066Z,3.33
2018-07-31T12:15:04.564Z,3.80
2018-07-31T12:17:32.612Z,4.10
2018-07-31T12:20:00.598Z,3.90
2018-07-31T12:22:28.666Z,3.60
2018-07-31T12:24:56.653Z,3.50
2018-07-31T12:27:24.632Z,4.00
2018-07-31T12:29:52.686Z,3.27
2018-07-31T12:32:20.701Z,3.67
2018-07-31T12:34:48.684Z,3.50
2018-07-31T12:37:16.676Z,3.80
2018-07-31T12:39:44.676Z,2.93
2018-07-31T12:42:12.673Z,2.77
2018-07-31T12:44:40.776Z,2.67
2018-07-31T12:47:08.968Z,3.17
2018-07-31T12:49:37.200Z,3.60
2018-07-31T12:52:05.232Z,3.00
2018-07-31T12:54:33.217Z,2.60
2018-07-31T12:57:01.376Z,3.43
2018-07-31T12:59:29.532Z,2.90
2018-07-31T13:01:57.713Z,2.80
2018-07-31T13:04:25.732Z,3.17
2018-07-31T13:06:53.902Z,3.05
2018-07-31T13:09:21.873Z,3.27
2018-07-31T13:11:49.961Z,3.00
2018-07-31T13:14:18.033Z,3.03
2018-07-31T13:16:46.311Z,3.20
2018-07-31T13:19:14.409Z,2.77
2018-07-31T13:21:42.708Z,3.50
2018-07-31T13:24:10.769Z,2.77
2018-07-31T13:26:38.881Z,2.53
2018-07-31T13:29:07.037Z,2.50
2018-07-31T13:31:35.128Z,2.43
2018-07-31T13:34:03.260Z,2.63
2018-07-31T13:36:31.368Z,2.90
2018-07-31T13:38:59.500Z,2.73
2018-07-31T13:41:27.669Z,2.47
2018-07-31T13:43:56.090Z,2.83
2018-07-31T13:46:24.161Z,2.73
2018-07-31T13:48:52.310Z,2.67
2018-07-31T13:51:20.479Z,2.67
2018-07-31T13:53:48.550Z,2.33
2018-07-31T13:56:16.624Z,3.17
2018-07-31T13:58:45.817Z,3.00
2018-07-31T14:01:13.976Z,2.17
2018-07-31T14:03:41.978Z,2.50
2018-07-31T14:06:09.948Z,2.67
2018-07-31T14:08:38.630Z,2.65
2018-07-31T14:11:06.665Z,3.00
2018-07-31T14:13:34.664Z,2.65
2018-07-31T14:16:02.788Z,2.35
2018-07-31T14:18:30.842Z,2.62
2018-07-31T14:22:02.453Z,2.35
2018-07-31T14:24:30.569Z,1.75
2018-07-31T14:26:58.788Z,2.60
2018-07-31T14:29:26.756Z,2.40
2018-07-31T14:31:54.772Z,2.10
2018-07-31T14:34:22.800Z,2.77
2018-07-31T14:36:50.796Z,2.08
2018-07-31T14:39:18.794Z,3.03
2018-07-31T14:41:46.772Z,2.92
2018-07-31T14:44:14.770Z,3.20
2018-07-31T14:46:42.752Z,3.10
2018-07-31T14:49:10.762Z,3.10
2018-07-31T14:51:38.808Z,2.80
2018-07-31T14:54:06.969Z,3.50
2018-07-31T14:56:34.974Z,3.20
2018-07-31T14:59:02.959Z,2.97
2018-07-31T15:01:31.016Z,3.70
2018-07-31T15:03:59.037Z,3.00
2018-07-31T15:06:27.280Z,2.57
2018-07-31T15:08:55.342Z,2.20
2018-07-31T15:11:23.473Z,2.40
2018-07-31T15:13:51.651Z,2.00
2018-07-31T15:16:19.743Z,2.40
2018-07-31T15:18:47.740Z,2.20
2018-07-31T15:21:15.756Z,1.90
2018-07-31T15:23:43.726Z,2.13
2018-07-31T15:26:11.744Z,2.07
2018-07-31T15:28:39.770Z,2.30
2018-07-31T15:31:07.745Z,1.87
2018-07-31T15:33:35.840Z,2.70
2018-07-31T15:36:03.839Z,2.57
2018-07-31T15:38:31.869Z,2.00
2018-07-31T15:40:59.936Z,2.43
2018-07-31T15:43:27.977Z,2.57
2018-07-31T15:45:56.037Z,2.37
2018-07-31T15:48:24.517Z,1.93
2018-07-31T15:50:52.512Z,2.17
2018-07-31T15:53:20.512Z,2.20
2018-07-31T15:55:48.573Z,1.90
2018-07-31T15:58:16.590Z,2.00
2018-07-31T16:00:44.628Z,2.50
2018-07-31T16:03:12.680Z,2.57
2018-07-31T16:05:40.744Z,2.10
2018-07-31T16:08:08.713Z,1.97
2018-07-31T16:10:36.740Z,1.93
2018-07-31T16:13:04.733Z,1.90
2018-07-31T16:15:32.749Z,1.87
2018-07-31T16:18:00.809Z,2.00
2018-07-31T16:20:28.816Z,2.47
2018-07-31T16:22:56.881Z,2.27
2018-07-31T16:25:24.797Z,1.90
2018-07-31T16:27:52.808Z,1.97
2018-07-31T16:30:20.820Z,2.10
2018-07-31T16:32:48.793Z,2.20
2018-07-31T16:35:16.792Z,1.80
2018-07-31T16:37:44.841Z,2.10
2018-07-31T16:40:12.856Z,1.57
2018-07-31T16:42:40.986Z,1.40
2018-07-31T16:45:09.000Z,1.77
2018-07-31T16:47:37.150Z,1.77
2018-07-31T16:50:05.388Z,1.57
2018-07-31T16:52:33.362Z,2.20
2018-07-31T16:55:01.356Z,2.33
2018-07-31T16:57:29.332Z,2.60
2018-07-31T16:59:57.308Z,2.13
2018-07-31T17:02:25.456Z,2.53
2018-07-31T17:04:53.450Z,2.23
2018-07-31T17:07:21.445Z,3.40
2018-07-31T17:09:49.548Z,3.40
2018-07-31T17:12:17.596Z,2.70
2018-07-31T17:14:45.609Z,2.50
2018-07-31T17:17:13.669Z,2.53
2018-07-31T17:19:41.745Z,2.40
2018-07-31T17:22:09.756Z,2.67
2018-07-31T17:24:37.980Z,3.43
2018-07-31T17:27:06.011Z,2.80
2018-07-31T17:29:34.017Z,2.70
2018-07-31T17:32:02.162Z,2.70
2018-07-31T17:34:30.157Z,2.10
2018-07-31T17:36:58.174Z,4.00
2018-07-31T17:39:26.203Z,2.90
2018-07-31T17:41:54.268Z,3.43
2018-07-31T17:44:22.324Z,3.20
2018-07-31T17:46:50.684Z,3.50
2018-07-31T17:49:18.724Z,2.77
2018-07-31T17:51:46.740Z,2.47
2018-07-31T17:54:14.740Z,2.90
2018-07-31T17:56:42.769Z,2.37
2018-07-31T17:59:10.924Z,3.30
2018-07-31T18:01:39.062Z,2.40
2018-07-31T18:04:07.191Z,2.60
2018-07-31T18:06:35.176Z,2.83
2018-07-31T18:09:03.312Z,2.40
2018-07-31T18:11:31.313Z,2.33
2018-07-31T18:13:59.330Z,3.37
2018-07-31T18:16:27.385Z,2.83
2018-07-31T18:18:55.555Z,2.50
2018-07-31T18:21:23.612Z,3.60
2018-07-31T18:23:51.663Z,3.50
2018-07-31T18:26:19.668Z,2.03
2018-07-31T18:28:47.665Z,2.87
2018-07-31T18:31:15.753Z,2.67
2018-07-31T18:33:43.746Z,1.97
2018-07-31T18:36:11.747Z,2.60
2018-07-31T18:38:39.772Z,3.13
2018-07-31T18:41:07.900Z,2.47
2018-07-31T18:43:35.799Z,2.33
2018-07-31T18:46:03.896Z,2.60
2018-07-31T18:48:32.002Z,2.60
2018-07-31T18:51:00.057Z,2.67
2018-07-31T18:53:28.276Z,2.17
2018-07-31T18:55:56.517Z,3.00
2018-07-31T18:58:25.912Z,2.67
2018-07-31T19:00:54.558Z,2.80
2018-07-31T19:03:22.632Z,2.00
2018-07-31T19:05:50.652Z,2.53
2018-07-31T19:08:18.769Z,2.57
2018-07-31T19:10:46.964Z,2.60
2018-07-31T19:13:15.084Z,2.60
2018-07-31T19:15:43.289Z,2.30
2018-07-31T19:18:11.324Z,2.50
2018-07-31T19:20:39.551Z,2.73
2018-07-31T19:23:07.713Z,2.40
2018-07-31T19:25:35.772Z,2.50
2018-07-31T19:28:03.969Z,2.77
2018-07-31T19:30:31.956Z,2.43
2018-07-31T19:33:00.163Z,2.27
2018-07-31T19:35:28.322Z,2.33
2018-07-31T19:37:56.491Z,2.50
2018-07-31T19:40:25.137Z,2.33
2018-07-31T19:42:53.568Z,2.50
2018-07-31T19:45:21.831Z,2.20
2018-07-31T19:47:50.353Z,2.40
2018-07-31T19:50:18.552Z,3.07
2018-07-31T19:52:46.936Z,2.33
2018-07-31T19:55:14.989Z,2.40
2018-07-31T19:57:42.996Z,2.33
2018-07-31T20:00:11.028Z,2.50
2018-07-31T20:02:39.111Z,2.97
2018-07-31T20:05:07.426Z,2.53
2018-07-31T20:07:35.456Z,2.10
2018-07-31T20:10:03.531Z,2.30
2018-07-31T20:12:31.748Z,2.50
2018-07-31T20:14:59.696Z,2.20
2018-07-31T20:17:27.776Z,2.10
2018-07-31T20:19:55.794Z,3.40
2018-07-31T20:22:23.852Z,2.07
2018-07-31T20:24:52.112Z,2.30
2018-07-31T20:27:20.156Z,1.87
2018-07-31T20:29:48.188Z,2.30
2018-07-31T20:32:16.434Z,2.27
2018-07-31T20:34:45.547Z,2.33
2018-07-31T20:37:13.661Z,3.10
2018-07-31T20:39:41.793Z,2.57
2018-07-31T20:42:09.937Z,2.50
2018-07-31T20:44:37.992Z,2.90
2018-07-31T20:47:06.178Z,2.77
2018-07-31T20:49:34.291Z,2.07
2018-07-31T20:52:02.389Z,2.37
2018-07-31T20:54:30.399Z,2.00
2018-07-31T20:56:58.444Z,2.37
2018-07-31T20:59:26.619Z,2.83
2018-07-31T21:01:54.753Z,2.47
2018-07-31T21:04:23.100Z,2.70
2018-07-31T21:06:51.156Z,2.70
2018-07-31T21:09:21.185Z,2.53
2018-07-31T21:11:49.989Z,2.43
2018-07-31T21:14:18.250Z,2.13
2018-07-31T21:16:46.417Z,2.33
2018-07-31T21:19:14.480Z,2.20
2018-07-31T21:21:42.540Z,2.00
2018-07-31T21:24:10.604Z,1.70
2018-07-31T21:26:38.775Z,1.23
2018-07-31T21:29:06.800Z,2.03
2018-07-31T21:31:34.828Z,1.30
2018-07-31T21:34:02.961Z,1.70
2018-07-31T21:36:31.096Z,1.87
2018-07-31T21:38:59.120Z,1.20
2018-07-31T21:41:27.321Z,1.47
2018-07-31T21:43:55.424Z,2.23
2018-07-31T21:46:23.556Z,1.20
2018-07-31T21:48:51.719Z,0.93
2018-07-31T21:51:19.866Z,0.90
2018-07-31T21:53:47.956Z,1.00
2018-07-31T21:56:16.084Z,1.00
2018-07-31T21:58:44.142Z,1.00
2018-07-31T22:01:12.293Z,1.53
2018-07-31T22:03:40.368Z,1.17
2018-07-31T22:06:08.552Z,1.10
2018-07-31T22:08:37.358Z,1.37
2018-07-31T22:11:05.630Z,1.17
2018-07-31T22:13:33.637Z,1.80
2018-07-31T22:16:01.732Z,1.50
2018-07-31T22:18:29.744Z,1.23
2018-07-31T22:20:57.761Z,1.30
2018-07-31T22:23:25.936Z,1.20
2018-07-31T22:25:53.964Z,1.17
2018-07-31T22:28:22.046Z,1.20
2018-07-31T22:30:50.048Z,1.27
2018-07-31T22:33:18.077Z,1.70
2018-07-31T22:35:46.111Z,1.13
2018-07-31T22:38:14.147Z,1.37
2018-07-31T22:40:42.192Z,1.60
2018-07-31T22:43:10.234Z,1.70
2018-07-31T22:45:38.225Z,1.70
2018-07-31T22:48:06.249Z,1.70
2018-07-31T22:50:34.389Z,1.70
2018-07-31T22:53:02.416Z,1.40
2018-07-31T22:55:30.501Z,1.50
2018-07-31T22:57:58.695Z,1.67
2018-07-31T23:00:26.661Z,1.40
2018-07-31T23:02:54.660Z,1.70
2018-07-31T23:05:22.652Z,1.50
2018-07-31T23:07:50.648Z,1.77
2018-07-31T23:10:20.257Z,1.57
2018-07-31T23:12:49.248Z,1.57
2018-07-31T23:15:17.254Z,1.70
2018-07-31T23:17:45.244Z,1.80
2018-07-31T23:20:13.253Z,1.53
2018-07-31T23:22:44.141Z,1.47
2018-07-31T23:25:12.120Z,1.83
2018-07-31T23:27:39.325Z,1.60
2018-07-31T23:30:08.105Z,1.63
2018-07-31T23:32:36.608Z,1.60
2018-07-31T23:35:04.883Z,1.73
2018-07-31T23:37:32.964Z,1.30
2018-07-31T23:40:02.046Z,1.60
2018-07-31T23:42:30.506Z,1.67
2018-07-31T23:44:58.523Z,1.63
2018-07-31T23:47:27.584Z,1.40
2018-07-31T23:49:55.696Z,1.60
2018-07-31T23:52:23.715Z,1.50
2018-07-31T23:54:51.786Z,1.50
2018-07-31T23:57:19.760Z,1.57
2018-07-31T23:59:47.776Z,1.97
